Terminal Aerodrome Forecast
Issued by NWS Sterling, VA

Home | Current Version | Previous Version | Text Only | Print | Product List | Glossary On
Versions: 1 2 3 4 5 6 7 8 9 10 11 12 13 14 15 16 17 18 19 20 21
000
FTUS41 KLWX 282058 AAA
TAFIAD
TAF AMD
KIAD 282058Z 2821/2924 VRB03KT P6SM FEW250
      TEMPO 2909/2912 4SM BR SKC
     FM291200 00000KT P6SM FEW070
     FM292000 02004KT P6SM BKN060=

USA.gov is the U.S. government's official web portal to all federal, state and local government web resources and services.